sensor_id;sensor_type;location;lat;lon;timestamp;temperature;humidity
44215;DHT22;29884;47.450;19.124;2023-04-07T00:00:53;4.10;99.90
44215;DHT22;29884;47.450;19.124;2023-04-07T00:03:19;4.20;99.90
44215;DHT22;29884;47.450;19.124;2023-04-07T00:05:46;4.20;99.90
44215;DHT22;29884;47.450;19.124;2023-04-07T00:08:12;4.20;99.90
44215;DHT22;29884;47.450;19.124;2023-04-07T00:10:37;4.20;99.90
44215;DHT22;29884;47.450;19.124;2023-04-07T00:13:03;4.20;99.90
44215;DHT22;29884;47.450;19.124;2023-04-07T00:15:29;4.30;99.90
44215;DHT22;29884;47.450;19.124;2023-04-07T00:17:55;4.20;99.90
44215;DHT22;29884;47.450;19.124;2023-04-07T00:20:21;4.20;99.90
44215;DHT22;29884;47.450;19.124;2023-04-07T00:22:47;4.20;99.90
44215;DHT22;29884;47.450;19.124;2023-04-07T00:25:14;4.20;99.90
44215;DHT22;29884;47.450;19.124;2023-04-07T00:27:40;4.20;99.90
44215;DHT22;29884;47.450;19.124;2023-04-07T00:30:06;4.20;99.90
44215;DHT22;29884;47.450;19.124;2023-04-07T00:32:32;4.20;99.90
44215;DHT22;29884;47.450;19.124;2023-04-07T00:34:57;4.20;99.90
44215;DHT22;29884;47.450;19.124;2023-04-07T00:37:23;4.20;99.90
44215;DHT22;29884;47.450;19.124;2023-04-07T00:39:50;4.20;99.90
44215;DHT22;29884;47.450;19.124;2023-04-07T00:42:16;4.30;99.90
44215;DHT22;29884;47.450;19.124;2023-04-07T00:44:41;4.30;99.90
44215;DHT22;29884;47.450;19.124;2023-04-07T00:47:07;4.30;99.90
44215;DHT22;29884;47.450;19.124;2023-04-07T00:49:33;4.30;99.90
44215;DHT22;29884;47.450;19.124;2023-04-07T00:52:00;4.30;99.90
44215;DHT22;29884;47.450;19.124;2023-04-07T00:54:25;4.40;99.90
44215;DHT22;29884;47.450;19.124;2023-04-07T00:56:52;4.30;99.90
44215;DHT22;29884;47.450;19.124;2023-04-07T00:59:18;4.30;99.90
44215;DHT22;29884;47.450;19.124;2023-04-07T01:02:14;4.30;99.90
44215;DHT22;29884;47.450;19.124;2023-04-07T01:05:29;4.30;99.90
44215;DHT22;29884;47.450;19.124;2023-04-07T01:08:00;4.30;99.90
44215;DHT22;29884;47.450;19.124;2023-04-07T01:10:55;4.20;99.90
44215;DHT22;29884;47.450;19.124;2023-04-07T01:13:41;4.20;99.90
44215;DHT22;29884;47.450;19.124;2023-04-07T01:16:12;4.20;99.90
44215;DHT22;29884;47.450;19.124;2023-04-07T01:18:40;4.10;99.90
44215;DHT22;29884;47.450;19.124;2023-04-07T01:21:13;4.10;99.90
44215;DHT22;29884;47.450;19.124;2023-04-07T01:26:30;4.10;99.90
44215;DHT22;29884;47.450;19.124;2023-04-07T01:31:49;4.10;99.90
44215;DHT22;29884;47.450;19.124;2023-04-07T01:34:16;4.10;99.90
44215;DHT22;29884;47.450;19.124;2023-04-07T01:36:43;4.00;99.90
44215;DHT22;29884;47.450;19.124;2023-04-07T01:39:10;3.90;99.90
44215;DHT22;29884;47.450;19.124;2023-04-07T01:41:37;4.00;99.90
44215;DHT22;29884;47.450;19.124;2023-04-07T01:44:05;4.00;99.90
44215;DHT22;29884;47.450;19.124;2023-04-07T01:46:33;4.00;99.90
44215;DHT22;29884;47.450;19.124;2023-04-07T01:48:59;4.00;99.90
44215;DHT22;29884;47.450;19.124;2023-04-07T01:51:27;4.00;99.90
44215;DHT22;29884;47.450;19.124;2023-04-07T01:53:55;4.00;99.90
44215;DHT22;29884;47.450;19.124;2023-04-07T01:56:21;4.00;99.90
44215;DHT22;29884;47.450;19.124;2023-04-07T01:58:47;4.00;99.90
44215;DHT22;29884;47.450;19.124;2023-04-07T02:01:13;4.00;99.90
44215;DHT22;29884;47.450;19.124;2023-04-07T02:03:46;4.00;99.90
44215;DHT22;29884;47.450;19.124;2023-04-07T02:06:18;4.10;99.90
44215;DHT22;29884;47.450;19.124;2023-04-07T02:08:49;4.00;99.90
44215;DHT22;29884;47.450;19.124;2023-04-07T02:11:17;4.10;99.90
44215;DHT22;29884;47.450;19.124;2023-04-07T02:13:45;4.10;99.90
44215;DHT22;29884;47.450;19.124;2023-04-07T02:16:12;4.10;99.90
44215;DHT22;29884;47.450;19.124;2023-04-07T02:18:38;4.10;99.90
44215;DHT22;29884;47.450;19.124;2023-04-07T02:21:06;4.00;99.90
44215;DHT22;29884;47.450;19.124;2023-04-07T02:23:34;4.00;99.90
44215;DHT22;29884;47.450;19.124;2023-04-07T02:26:00;4.00;99.90
44215;DHT22;29884;47.450;19.124;2023-04-07T02:28:26;4.00;99.90
44215;DHT22;29884;47.450;19.124;2023-04-07T02:30:51;4.00;99.90
44215;DHT22;29884;47.450;19.124;2023-04-07T02:33:17;4.00;99.90
44215;DHT22;29884;47.450;19.124;2023-04-07T02:35:43;4.00;99.90
44215;DHT22;29884;47.450;19.124;2023-04-07T02:38:09;3.90;99.90
44215;DHT22;29884;47.450;19.124;2023-04-07T02:40:35;4.00;99.90
44215;DHT22;29884;47.450;19.124;2023-04-07T02:43:01;3.90;99.90
44215;DHT22;29884;47.450;19.124;2023-04-07T02:45:27;4.00;99.90
44215;DHT22;29884;47.450;19.124;2023-04-07T02:47:52;4.00;99.90
44215;DHT22;29884;47.450;19.124;2023-04-07T02:50:18;4.00;99.90
44215;DHT22;29884;47.450;19.124;2023-04-07T02:52:44;4.00;99.90
44215;DHT22;29884;47.450;19.124;2023-04-07T02:55:09;4.00;99.90
44215;DHT22;29884;47.450;19.124;2023-04-07T02:57:35;3.90;99.90
44215;DHT22;29884;47.450;19.124;2023-04-07T03:00:01;3.90;99.90
44215;DHT22;29884;47.450;19.124;2023-04-07T03:02:27;3.90;99.90
44215;DHT22;29884;47.450;19.124;2023-04-07T03:04:53;4.00;99.90
44215;DHT22;29884;47.450;19.124;2023-04-07T03:07:18;4.00;99.90
44215;DHT22;29884;47.450;19.124;2023-04-07T03:09:44;4.00;99.90
44215;DHT22;29884;47.450;19.124;2023-04-07T03:12:11;4.00;99.90
44215;DHT22;29884;47.450;19.124;2023-04-07T03:14:36;4.00;99.90
44215;DHT22;29884;47.450;19.124;2023-04-07T03:17:03;4.00;99.90
44215;DHT22;29884;47.450;19.124;2023-04-07T03:19:29;4.00;99.90
44215;DHT22;29884;47.450;19.124;2023-04-07T03:21:54;3.90;99.90
44215;DHT22;29884;47.450;19.124;2023-04-07T03:24:20;3.90;99.90
44215;DHT22;29884;47.450;19.124;2023-04-07T03:26:46;3.90;99.90
44215;DHT22;29884;47.450;19.124;2023-04-07T03:29:12;3.90;99.90
44215;DHT22;29884;47.450;19.124;2023-04-07T03:31:37;4.00;99.90
44215;DHT22;29884;47.450;19.124;2023-04-07T03:34:04;4.00;99.90
44215;DHT22;29884;47.450;19.124;2023-04-07T03:36:30;4.00;99.90
44215;DHT22;29884;47.450;19.124;2023-04-07T03:38:56;4.10;99.90
44215;DHT22;29884;47.450;19.124;2023-04-07T03:41:22;4.10;99.90
44215;DHT22;29884;47.450;19.124;2023-04-07T03:43:48;4.10;99.90
44215;DHT22;29884;47.450;19.124;2023-04-07T03:46:14;4.10;99.90
44215;DHT22;29884;47.450;19.124;2023-04-07T03:48:40;4.10;99.90
44215;DHT22;29884;47.450;19.124;2023-04-07T03:51:06;4.00;99.90
44215;DHT22;29884;47.450;19.124;2023-04-07T03:53:32;3.90;99.90
44215;DHT22;29884;47.450;19.124;2023-04-07T03:55:57;3.90;99.90
44215;DHT22;29884;47.450;19.124;2023-04-07T03:58:23;3.90;99.90
44215;DHT22;29884;47.450;19.124;2023-04-07T04:00:49;4.00;99.90
44215;DHT22;29884;47.450;19.124;2023-04-07T04:03:15;4.00;99.90
44215;DHT22;29884;47.450;19.124;2023-04-07T04:05:40;4.00;99.90
44215;DHT22;29884;47.450;19.124;2023-04-07T04:08:06;4.10;99.90
44215;DHT22;29884;47.450;19.124;2023-04-07T04:10:32;4.10;99.90
44215;DHT22;29884;47.450;19.124;2023-04-07T04:12:57;4.10;99.90
44215;DHT22;29884;47.450;19.124;2023-04-07T04:15:25;4.20;99.90
44215;DHT22;29884;47.450;19.124;2023-04-07T04:17:51;4.20;99.90
44215;DHT22;29884;47.450;19.124;2023-04-07T04:20:17;4.20;99.90
44215;DHT22;29884;47.450;19.124;2023-04-07T04:22:43;4.20;99.90
44215;DHT22;29884;47.450;19.124;2023-04-07T04:25:08;4.20;99.90
44215;DHT22;29884;47.450;19.124;2023-04-07T04:27:34;4.20;99.90
44215;DHT22;29884;47.450;19.124;2023-04-07T04:30:00;4.20;99.90
44215;DHT22;29884;47.450;19.124;2023-04-07T04:32:26;4.30;99.90
44215;DHT22;29884;47.450;19.124;2023-04-07T04:34:52;4.30;99.90
44215;DHT22;29884;47.450;19.124;2023-04-07T04:37:17;4.30;99.90
44215;DHT22;29884;47.450;19.124;2023-04-07T04:39:44;4.40;99.90
44215;DHT22;29884;47.450;19.124;2023-04-07T04:42:10;4.40;99.90
44215;DHT22;29884;47.450;19.124;2023-04-07T04:44:36;4.40;99.90
44215;DHT22;29884;47.450;19.124;2023-04-07T04:47:02;4.40;99.90
44215;DHT22;29884;47.450;19.124;2023-04-07T04:49:27;4.40;99.90
44215;DHT22;29884;47.450;19.124;2023-04-07T04:51:53;4.30;99.90
44215;DHT22;29884;47.450;19.124;2023-04-07T04:54:19;4.30;99.90
44215;DHT22;29884;47.450;19.124;2023-04-07T04:56:44;4.30;99.90
44215;DHT22;29884;47.450;19.124;2023-04-07T04:59:10;4.40;99.90
44215;DHT22;29884;47.450;19.124;2023-04-07T05:01:36;4.40;99.90
44215;DHT22;29884;47.450;19.124;2023-04-07T05:04:02;4.30;99.90
44215;DHT22;29884;47.450;19.124;2023-04-07T05:06:28;4.20;99.90
44215;DHT22;29884;47.450;19.124;2023-04-07T05:08:53;4.20;99.90
44215;DHT22;29884;47.450;19.124;2023-04-07T05:11:19;4.20;99.90
44215;DHT22;29884;47.450;19.124;2023-04-07T05:13:46;4.30;99.90
44215;DHT22;29884;47.450;19.124;2023-04-07T05:16:12;4.30;99.90
44215;DHT22;29884;47.450;19.124;2023-04-07T05:18:38;4.20;99.90
44215;DHT22;29884;47.450;19.124;2023-04-07T05:21:04;4.20;99.90
44215;DHT22;29884;47.450;19.124;2023-04-07T05:23:29;4.20;99.90
44215;DHT22;29884;47.450;19.124;2023-04-07T05:25:55;4.20;99.90
44215;DHT22;29884;47.450;19.124;2023-04-07T05:28:21;4.20;99.90
44215;DHT22;29884;47.450;19.124;2023-04-07T05:30:47;4.30;99.90
44215;DHT22;29884;47.450;19.124;2023-04-07T05:33:13;4.30;99.90
44215;DHT22;29884;47.450;19.124;2023-04-07T05:35:39;4.30;99.90
44215;DHT22;29884;47.450;19.124;2023-04-07T05:38:05;4.40;99.90
44215;DHT22;29884;47.450;19.124;2023-04-07T05:40:30;4.50;99.90
44215;DHT22;29884;47.450;19.124;2023-04-07T05:42:56;4.50;99.90
44215;DHT22;29884;47.450;19.124;2023-04-07T05:45:22;4.50;99.90
44215;DHT22;29884;47.450;19.124;2023-04-07T05:47:48;4.50;99.90
44215;DHT22;29884;47.450;19.124;2023-04-07T05:50:17;4.60;99.90
44215;DHT22;29884;47.450;19.124;2023-04-07T05:52:42;4.60;99.90
44215;DHT22;29884;47.450;19.124;2023-04-07T05:55:08;4.60;99.90
44215;DHT22;29884;47.450;19.124;2023-04-07T05:57:34;4.70;99.90
44215;DHT22;29884;47.450;19.124;2023-04-07T06:00:00;4.70;99.90
44215;DHT22;29884;47.450;19.124;2023-04-07T06:02:25;4.60;99.90
44215;DHT22;29884;47.450;19.124;2023-04-07T06:04:51;4.70;99.90
44215;DHT22;29884;47.450;19.124;2023-04-07T06:07:17;4.70;99.90
44215;DHT22;29884;47.450;19.124;2023-04-07T06:09:43;4.80;99.90
44215;DHT22;29884;47.450;19.124;2023-04-07T06:12:08;4.80;99.90
44215;DHT22;29884;47.450;19.124;2023-04-07T06:14:36;4.80;99.90
44215;DHT22;29884;47.450;19.124;2023-04-07T06:17:02;4.90;99.90
44215;DHT22;29884;47.450;19.124;2023-04-07T06:19:28;4.90;99.90
44215;DHT22;29884;47.450;19.124;2023-04-07T06:21:54;4.90;99.90
44215;DHT22;29884;47.450;19.124;2023-04-07T06:24:19;4.80;99.90
44215;DHT22;29884;47.450;19.124;2023-04-07T06:26:47;4.80;99.90
44215;DHT22;29884;47.450;19.124;2023-04-07T06:29:13;4.80;99.90
44215;DHT22;29884;47.450;19.124;2023-04-07T06:31:39;4.90;99.90
44215;DHT22;29884;47.450;19.124;2023-04-07T06:34:05;5.00;99.90
44215;DHT22;29884;47.450;19.124;2023-04-07T06:36:31;5.10;99.90
44215;DHT22;29884;47.450;19.124;2023-04-07T06:38:58;5.00;99.90
44215;DHT22;29884;47.450;19.124;2023-04-07T06:41:24;5.00;99.90
44215;DHT22;29884;47.450;19.124;2023-04-07T06:43:50;5.00;99.90
44215;DHT22;29884;47.450;19.124;2023-04-07T06:46:18;4.90;99.90
44215;DHT22;29884;47.450;19.124;2023-04-07T06:48:45;5.00;99.90
44215;DHT22;29884;47.450;19.124;2023-04-07T06:51:11;5.20;99.90
44215;DHT22;29884;47.450;19.124;2023-04-07T06:53:37;5.20;99.90
44215;DHT22;29884;47.450;19.124;2023-04-07T06:56:07;5.10;99.90
44215;DHT22;29884;47.450;19.124;2023-04-07T06:58:34;5.10;99.90
44215;DHT22;29884;47.450;19.124;2023-04-07T07:01:00;5.20;99.90
44215;DHT22;29884;47.450;19.124;2023-04-07T07:03:26;5.30;99.90
44215;DHT22;29884;47.450;19.124;2023-04-07T07:05:54;5.30;99.90
44215;DHT22;29884;47.450;19.124;2023-04-07T07:08:21;5.30;99.90
44215;DHT22;29884;47.450;19.124;2023-04-07T07:10:47;5.20;99.90
44215;DHT22;29884;47.450;19.124;2023-04-07T07:13:13;5.30;99.90
44215;DHT22;29884;47.450;19.124;2023-04-07T07:15:38;5.20;99.90
44215;DHT22;29884;47.450;19.124;2023-04-07T07:18:04;5.10;99.90
44215;DHT22;29884;47.450;19.124;2023-04-07T07:20:30;4.90;99.90
44215;DHT22;29884;47.450;19.124;2023-04-07T07:22:55;4.90;99.90
44215;DHT22;29884;47.450;19.124;2023-04-07T07:25:22;4.90;99.90
44215;DHT22;29884;47.450;19.124;2023-04-07T07:27:51;4.90;99.90
44215;DHT22;29884;47.450;19.124;2023-04-07T07:30:19;4.90;99.90
44215;DHT22;29884;47.450;19.124;2023-04-07T07:32:45;5.00;99.90
44215;DHT22;29884;47.450;19.124;2023-04-07T07:35:11;4.90;99.90
44215;DHT22;29884;47.450;19.124;2023-04-07T07:37:37;5.00;99.90
44215;DHT22;29884;47.450;19.124;2023-04-07T07:40:02;5.00;99.90
44215;DHT22;29884;47.450;19.124;2023-04-07T07:42:29;4.90;99.90
44215;DHT22;29884;47.450;19.124;2023-04-07T07:44:55;5.00;99.90
44215;DHT22;29884;47.450;19.124;2023-04-07T07:47:21;5.10;99.90
44215;DHT22;29884;47.450;19.124;2023-04-07T07:49:48;5.00;99.90
44215;DHT22;29884;47.450;19.124;2023-04-07T07:52:13;5.10;99.90
44215;DHT22;29884;47.450;19.124;2023-04-07T07:54:40;5.00;99.90
44215;DHT22;29884;47.450;19.124;2023-04-07T07:57:05;5.00;99.90
44215;DHT22;29884;47.450;19.124;2023-04-07T07:59:31;5.10;99.90
44215;DHT22;29884;47.450;19.124;2023-04-07T08:01:57;5.20;99.90
44215;DHT22;29884;47.450;19.124;2023-04-07T08:04:23;5.20;99.90
44215;DHT22;29884;47.450;19.124;2023-04-07T08:06:50;5.40;99.90
44215;DHT22;29884;47.450;19.124;2023-04-07T08:09:17;5.40;99.90
44215;DHT22;29884;47.450;19.124;2023-04-07T08:11:43;5.30;99.90
44215;DHT22;29884;47.450;19.124;2023-04-07T08:14:09;5.30;99.90
44215;DHT22;29884;47.450;19.124;2023-04-07T08:16:34;5.30;99.90
44215;DHT22;29884;47.450;19.124;2023-04-07T08:19:00;5.40;99.90
44215;DHT22;29884;47.450;19.124;2023-04-07T08:21:26;5.50;99.90
44215;DHT22;29884;47.450;19.124;2023-04-07T08:23:55;5.60;99.90
44215;DHT22;29884;47.450;19.124;2023-04-07T08:26:21;5.50;99.90
44215;DHT22;29884;47.450;19.124;2023-04-07T08:28:48;5.40;99.90
44215;DHT22;29884;47.450;19.124;2023-04-07T08:31:16;5.40;99.90
44215;DHT22;29884;47.450;19.124;2023-04-07T08:33:42;5.50;99.90
44215;DHT22;29884;47.450;19.124;2023-04-07T08:36:07;5.50;99.90
44215;DHT22;29884;47.450;19.124;2023-04-07T08:38:33;5.70;99.90
44215;DHT22;29884;47.450;19.124;2023-04-07T08:41:07;5.60;99.90
44215;DHT22;29884;47.450;19.124;2023-04-07T08:43:38;5.60;99.90
44215;DHT22;29884;47.450;19.124;2023-04-07T08:46:04;5.50;99.90
44215;DHT22;29884;47.450;19.124;2023-04-07T08:48:30;5.60;99.90
44215;DHT22;29884;47.450;19.124;2023-04-07T08:51:09;5.50;99.90
44215;DHT22;29884;47.450;19.124;2023-04-07T08:53:48;5.70;99.90
44215;DHT22;29884;47.450;19.124;2023-04-07T08:56:17;5.60;99.90
44215;DHT22;29884;47.450;19.124;2023-04-07T08:58:44;5.70;99.90
44215;DHT22;29884;47.450;19.124;2023-04-07T09:01:10;5.60;99.90
44215;DHT22;29884;47.450;19.124;2023-04-07T09:03:37;5.60;99.90
44215;DHT22;29884;47.450;19.124;2023-04-07T09:06:03;5.60;99.90
44215;DHT22;29884;47.450;19.124;2023-04-07T09:08:29;5.60;99.90
44215;DHT22;29884;47.450;19.124;2023-04-07T09:10:56;5.70;99.90
44215;DHT22;29884;47.450;19.124;2023-04-07T09:13:23;5.80;99.90
44215;DHT22;29884;47.450;19.124;2023-04-07T09:15:49;5.80;99.90
44215;DHT22;29884;47.450;19.124;2023-04-07T09:18:15;5.90;99.90
44215;DHT22;29884;47.450;19.124;2023-04-07T09:20:58;5.90;99.90
44215;DHT22;29884;47.450;19.124;2023-04-07T09:23:37;6.00;99.90
44215;DHT22;29884;47.450;19.124;2023-04-07T09:28:48;5.90;99.90
44215;DHT22;29884;47.450;19.124;2023-04-07T09:31:15;6.00;99.90
44215;DHT22;29884;47.450;19.124;2023-04-07T09:33:41;6.10;99.90
44215;DHT22;29884;47.450;19.124;2023-04-07T09:36:07;6.10;99.90
44215;DHT22;29884;47.450;19.124;2023-04-07T09:38:37;6.00;99.90
44215;DHT22;29884;47.450;19.124;2023-04-07T09:41:10;5.90;99.90
44215;DHT22;29884;47.450;19.124;2023-04-07T09:43:45;5.80;99.90
44215;DHT22;29884;47.450;19.124;2023-04-07T09:46:18;5.90;99.90
44215;DHT22;29884;47.450;19.124;2023-04-07T09:48:45;5.80;99.90
44215;DHT22;29884;47.450;19.124;2023-04-07T09:51:12;5.80;99.90
44215;DHT22;29884;47.450;19.124;2023-04-07T09:53:46;5.90;99.90
44215;DHT22;29884;47.450;19.124;2023-04-07T09:56:13;5.90;99.90
44215;DHT22;29884;47.450;19.124;2023-04-07T09:58:43;5.90;99.90
44215;DHT22;29884;47.450;19.124;2023-04-07T10:01:09;6.10;99.90
44215;DHT22;29884;47.450;19.124;2023-04-07T10:03:36;6.00;99.90
44215;DHT22;29884;47.450;19.124;2023-04-07T10:06:03;6.00;99.90
44215;DHT22;29884;47.450;19.124;2023-04-07T10:08:33;6.20;99.90
44215;DHT22;29884;47.450;19.124;2023-04-07T10:11:03;6.30;99.90
44215;DHT22;29884;47.450;19.124;2023-04-07T10:13:30;6.30;99.90
44215;DHT22;29884;47.450;19.124;2023-04-07T10:15:57;6.40;99.90
44215;DHT22;29884;47.450;19.124;2023-04-07T10:18:30;6.40;99.90
44215;DHT22;29884;47.450;19.124;2023-04-07T10:21:00;6.40;99.90
44215;DHT22;29884;47.450;19.124;2023-04-07T10:26:18;6.40;99.90
44215;DHT22;29884;47.450;19.124;2023-04-07T10:28:49;6.50;99.90
44215;DHT22;29884;47.450;19.124;2023-04-07T10:31:16;6.40;99.90
44215;DHT22;29884;47.450;19.124;2023-04-07T10:33:46;6.40;99.90
44215;DHT22;29884;47.450;19.124;2023-04-07T10:36:13;6.40;99.90
44215;DHT22;29884;47.450;19.124;2023-04-07T10:38:38;6.50;99.90
44215;DHT22;29884;47.450;19.124;2023-04-07T10:44:05;6.50;99.90
44215;DHT22;29884;47.450;19.124;2023-04-07T10:49:13;6.70;99.90
44215;DHT22;29884;47.450;19.124;2023-04-07T10:51:39;6.70;99.90
44215;DHT22;29884;47.450;19.124;2023-04-07T10:54:15;6.80;99.90
44215;DHT22;29884;47.450;19.124;2023-04-07T10:59:32;7.00;99.90
44215;DHT22;29884;47.450;19.124;2023-04-07T11:04:41;6.90;99.90
44215;DHT22;29884;47.450;19.124;2023-04-07T11:07:07;6.90;99.90
44215;DHT22;29884;47.450;19.124;2023-04-07T11:09:33;7.20;99.90
44215;DHT22;29884;47.450;19.124;2023-04-07T11:11:59;7.20;99.90
44215;DHT22;29884;47.450;19.124;2023-04-07T11:14:29;7.30;99.90
44215;DHT22;29884;47.450;19.124;2023-04-07T11:16:56;7.30;99.90
44215;DHT22;29884;47.450;19.124;2023-04-07T11:19:22;7.50;99.90
44215;DHT22;29884;47.450;19.124;2023-04-07T11:21:48;7.70;99.90
44215;DHT22;29884;47.450;19.124;2023-04-07T11:24:33;7.90;99.90
44215;DHT22;29884;47.450;19.124;2023-04-07T11:26:59;7.80;99.90
44215;DHT22;29884;47.450;19.124;2023-04-07T11:29:32;7.70;99.90
44215;DHT22;29884;47.450;19.124;2023-04-07T11:32:00;7.70;99.90
44215;DHT22;29884;47.450;19.124;2023-04-07T11:34:30;7.80;99.90
44215;DHT22;29884;47.450;19.124;2023-04-07T11:36:57;7.50;99.90
44215;DHT22;29884;47.450;19.124;2023-04-07T11:39:25;7.30;99.90
44215;DHT22;29884;47.450;19.124;2023-04-07T11:41:56;7.50;99.90
44215;DHT22;29884;47.450;19.124;2023-04-07T11:44:22;7.60;99.90
44215;DHT22;29884;47.450;19.124;2023-04-07T11:49:20;7.80;99.90
44215;DHT22;29884;47.450;19.124;2023-04-07T11:51:45;8.00;99.90
44215;DHT22;29884;47.450;19.124;2023-04-07T11:54:11;8.00;99.90
44215;DHT22;29884;47.450;19.124;2023-04-07T11:56:45;7.90;99.90
44215;DHT22;29884;47.450;19.124;2023-04-07T11:59:19;8.00;99.90
44215;DHT22;29884;47.450;19.124;2023-04-07T12:01:46;8.10;99.90
44215;DHT22;29884;47.450;19.124;2023-04-07T12:04:13;7.90;99.90
44215;DHT22;29884;47.450;19.124;2023-04-07T12:06:40;7.60;99.90
44215;DHT22;29884;47.450;19.124;2023-04-07T12:09:28;7.60;99.90
44215;DHT22;29884;47.450;19.124;2023-04-07T12:11:55;7.70;99.90
44215;DHT22;29884;47.450;19.124;2023-04-07T12:14:22;7.70;99.90
44215;DHT22;29884;47.450;19.124;2023-04-07T12:16:48;7.60;99.90
44215;DHT22;29884;47.450;19.124;2023-04-07T12:19:14;7.60;99.90
44215;DHT22;29884;47.450;19.124;2023-04-07T12:21:40;7.80;99.90
44215;DHT22;29884;47.450;19.124;2023-04-07T12:24:05;7.90;99.90
44215;DHT22;29884;47.450;19.124;2023-04-07T12:26:31;7.90;99.90
44215;DHT22;29884;47.450;19.124;2023-04-07T12:28:57;8.00;99.90
44215;DHT22;29884;47.450;19.124;2023-04-07T12:31:32;7.80;99.90
44215;DHT22;29884;47.450;19.124;2023-04-07T12:33:59;7.90;99.90
44215;DHT22;29884;47.450;19.124;2023-04-07T12:36:25;7.90;99.90
44215;DHT22;29884;47.450;19.124;2023-04-07T12:38:55;7.90;99.90
44215;DHT22;29884;47.450;19.124;2023-04-07T12:41:21;7.90;99.90
44215;DHT22;29884;47.450;19.124;2023-04-07T12:43:47;7.90;99.90
44215;DHT22;29884;47.450;19.124;2023-04-07T12:46:13;7.80;99.90
44215;DHT22;29884;47.450;19.124;2023-04-07T12:48:39;7.90;99.90
44215;DHT22;29884;47.450;19.124;2023-04-07T12:51:05;8.10;99.90
44215;DHT22;29884;47.450;19.124;2023-04-07T12:53:30;8.20;99.90
44215;DHT22;29884;47.450;19.124;2023-04-07T12:55:57;8.20;99.90
44215;DHT22;29884;47.450;19.124;2023-04-07T12:58:23;8.10;99.90
44215;DHT22;29884;47.450;19.124;2023-04-07T13:00:51;8.10;99.90
44215;DHT22;29884;47.450;19.124;2023-04-07T13:03:16;8.20;99.90
44215;DHT22;29884;47.450;19.124;2023-04-07T13:05:42;8.20;99.90
44215;DHT22;29884;47.450;19.124;2023-04-07T13:08:08;8.10;99.90
44215;DHT22;29884;47.450;19.124;2023-04-07T13:10:34;8.00;99.90
44215;DHT22;29884;47.450;19.124;2023-04-07T13:13:00;8.10;99.90
44215;DHT22;29884;47.450;19.124;2023-04-07T13:15:26;8.20;99.90
44215;DHT22;29884;47.450;19.124;2023-04-07T13:17:53;8.00;99.90
44215;DHT22;29884;47.450;19.124;2023-04-07T13:20:19;7.90;99.90
44215;DHT22;29884;47.450;19.124;2023-04-07T13:22:45;7.90;99.90
44215;DHT22;29884;47.450;19.124;2023-04-07T13:25:12;8.00;99.90
44215;DHT22;29884;47.450;19.124;2023-04-07T13:27:37;8.10;99.90
44215;DHT22;29884;47.450;19.124;2023-04-07T13:30:04;8.10;99.90
44215;DHT22;29884;47.450;19.124;2023-04-07T13:32:30;8.20;99.90
44215;DHT22;29884;47.450;19.124;2023-04-07T13:34:56;8.30;99.90
44215;DHT22;29884;47.450;19.124;2023-04-07T13:37:21;8.30;99.90
44215;DHT22;29884;47.450;19.124;2023-04-07T13:39:47;8.10;99.90
44215;DHT22;29884;47.450;19.124;2023-04-07T13:42:13;8.10;99.90
44215;DHT22;29884;47.450;19.124;2023-04-07T13:44:42;8.10;99.90
44215;DHT22;29884;47.450;19.124;2023-04-07T13:47:12;7.90;99.90
44215;DHT22;29884;47.450;19.124;2023-04-07T13:49:47;7.80;99.90
44215;DHT22;29884;47.450;19.124;2023-04-07T13:52:13;7.80;99.90
44215;DHT22;29884;47.450;19.124;2023-04-07T13:54:39;7.80;99.90
44215;DHT22;29884;47.450;19.124;2023-04-07T13:57:05;7.80;99.90
44215;DHT22;29884;47.450;19.124;2023-04-07T13:59:31;7.80;99.90
44215;DHT22;29884;47.450;19.124;2023-04-07T14:01:57;7.80;99.90
44215;DHT22;29884;47.450;19.124;2023-04-07T14:04:22;7.90;99.90
44215;DHT22;29884;47.450;19.124;2023-04-07T14:06:48;7.90;99.90
44215;DHT22;29884;47.450;19.124;2023-04-07T14:09:14;7.90;99.90
44215;DHT22;29884;47.450;19.124;2023-04-07T14:11:40;7.80;99.90
44215;DHT22;29884;47.450;19.124;2023-04-07T14:14:06;7.70;99.90
44215;DHT22;29884;47.450;19.124;2023-04-07T14:16:32;7.70;99.90
44215;DHT22;29884;47.450;19.124;2023-04-07T14:18:58;7.70;99.90
44215;DHT22;29884;47.450;19.124;2023-04-07T14:21:24;7.70;99.90
44215;DHT22;29884;47.450;19.124;2023-04-07T14:23:52;7.80;99.90
44215;DHT22;29884;47.450;19.124;2023-04-07T14:26:17;7.80;99.90
44215;DHT22;29884;47.450;19.124;2023-04-07T14:28:43;7.60;99.90
44215;DHT22;29884;47.450;19.124;2023-04-07T14:31:15;7.60;99.90
44215;DHT22;29884;47.450;19.124;2023-04-07T14:33:44;7.60;99.90
44215;DHT22;29884;47.450;19.124;2023-04-07T14:36:12;7.70;99.90
44215;DHT22;29884;47.450;19.124;2023-04-07T14:38:38;7.60;99.90
44215;DHT22;29884;47.450;19.124;2023-04-07T14:41:03;7.70;99.90
44215;DHT22;29884;47.450;19.124;2023-04-07T14:43:30;7.60;99.90
44215;DHT22;29884;47.450;19.124;2023-04-07T14:45:55;7.70;99.90
44215;DHT22;29884;47.450;19.124;2023-04-07T14:48:22;7.70;99.90
44215;DHT22;29884;47.450;19.124;2023-04-07T14:50:48;7.70;99.90
44215;DHT22;29884;47.450;19.124;2023-04-07T14:53:15;7.60;99.90
44215;DHT22;29884;47.450;19.124;2023-04-07T14:55:41;7.70;99.90
44215;DHT22;29884;47.450;19.124;2023-04-07T14:58:07;7.70;99.90
44215;DHT22;29884;47.450;19.124;2023-04-07T15:00:33;7.70;99.90
44215;DHT22;29884;47.450;19.124;2023-04-07T15:02:58;7.70;99.90
44215;DHT22;29884;47.450;19.124;2023-04-07T15:05:24;7.70;99.90
44215;DHT22;29884;47.450;19.124;2023-04-07T15:07:53;7.70;99.90
44215;DHT22;29884;47.450;19.124;2023-04-07T15:10:20;7.60;99.90
44215;DHT22;29884;47.450;19.124;2023-04-07T15:12:46;7.60;99.90
44215;DHT22;29884;47.450;19.124;2023-04-07T15:15:13;7.60;99.90
44215;DHT22;29884;47.450;19.124;2023-04-07T15:17:39;7.60;99.90
44215;DHT22;29884;47.450;19.124;2023-04-07T15:20:05;7.50;99.90
44215;DHT22;29884;47.450;19.124;2023-04-07T15:22:31;7.40;99.90
44215;DHT22;29884;47.450;19.124;2023-04-07T15:24:57;7.40;99.90
44215;DHT22;29884;47.450;19.124;2023-04-07T15:27:23;7.40;99.90
44215;DHT22;29884;47.450;19.124;2023-04-07T15:29:49;7.50;99.90
44215;DHT22;29884;47.450;19.124;2023-04-07T15:32:15;7.40;99.90
44215;DHT22;29884;47.450;19.124;2023-04-07T15:34:40;7.40;99.90
44215;DHT22;29884;47.450;19.124;2023-04-07T15:37:06;7.50;99.90
44215;DHT22;29884;47.450;19.124;2023-04-07T15:39:32;7.40;99.90
44215;DHT22;29884;47.450;19.124;2023-04-07T15:41:58;7.40;99.90
44215;DHT22;29884;47.450;19.124;2023-04-07T15:44:25;7.30;99.90
44215;DHT22;29884;47.450;19.124;2023-04-07T15:46:50;7.30;99.90
44215;DHT22;29884;47.450;19.124;2023-04-07T15:49:18;7.30;99.90
44215;DHT22;29884;47.450;19.124;2023-04-07T15:51:47;7.30;99.90
44215;DHT22;29884;47.450;19.124;2023-04-07T15:54:12;7.20;99.90